sensor_id;sensor_type;location;lat;lon;timestamp;pressure;altitude;pressure_sealevel;temperature;humidity
64827;BME280;51265;53.972;12.286;2022-11-14T00:02:11;101609.19;;;7.62;100.00
64827;BME280;51265;53.972;12.286;2022-11-14T00:04:56;101608.28;;;7.56;100.00
64827;BME280;51265;53.972;12.286;2022-11-14T00:07:40;101605.25;;;7.53;100.00
64827;BME280;51265;53.972;12.286;2022-11-14T00:10:25;101601.91;;;7.51;100.00
64827;BME280;51265;53.972;12.286;2022-11-14T00:13:09;101605.75;;;7.49;100.00
64827;BME280;51265;53.972;12.286;2022-11-14T00:15:54;101605.75;;;7.49;100.00
64827;BME280;51265;53.972;12.286;2022-11-14T00:18:39;101608.22;;;7.51;100.00
64827;BME280;51265;53.972;12.286;2022-11-14T00:21:23;101602.72;;;7.51;100.00
64827;BME280;51265;53.972;12.286;2022-11-14T00:24:07;101610.19;;;7.56;100.00
64827;BME280;51265;53.972;12.286;2022-11-14T00:26:52;101612.38;;;7.54;100.00
64827;BME280;51265;53.972;12.286;2022-11-14T00:29:37;101599.59;;;7.42;100.00
64827;BME280;51265;53.972;12.286;2022-11-14T00:32:22;101584.50;;;7.40;100.00
64827;BME280;51265;53.972;12.286;2022-11-14T00:35:07;101588.63;;;7.42;100.00
64827;BME280;51265;53.972;12.286;2022-11-14T00:37:52;101582.84;;;7.39;100.00
64827;BME280;51265;53.972;12.286;2022-11-14T00:40:37;101582.00;;;7.38;100.00
64827;BME280;51265;53.972;12.286;2022-11-14T00:43:22;101577.88;;;7.36;100.00
64827;BME280;51265;53.972;12.286;2022-11-14T00:46:06;101567.75;;;7.36;100.00
64827;BME280;51265;53.972;12.286;2022-11-14T00:48:51;101574.81;;;7.32;100.00
64827;BME280;51265;53.972;12.286;2022-11-14T00:51:36;101568.50;;;7.32;100.00
64827;BME280;51265;53.972;12.286;2022-11-14T00:54:20;101569.91;;;7.34;100.00
64827;BME280;51265;53.972;12.286;2022-11-14T00:57:05;101561.13;;;7.32;100.00
64827;BME280;51265;53.972;12.286;2022-11-14T00:59:49;101563.53;;;7.29;100.00
64827;BME280;51265;53.972;12.286;2022-11-14T01:02:34;101550.31;;;7.26;100.00
64827;BME280;51265;53.972;12.286;2022-11-14T01:05:19;101544.53;;;7.22;100.00
64827;BME280;51265;53.972;12.286;2022-11-14T01:08:04;101545.56;;;7.16;100.00
64827;BME280;51265;53.972;12.286;2022-11-14T01:10:49;101544.91;;;7.09;100.00
64827;BME280;51265;53.972;12.286;2022-11-14T01:13:34;101543.25;;;7.08;100.00
64827;BME280;51265;53.972;12.286;2022-11-14T01:16:19;101540.25;;;7.09;100.00
64827;BME280;51265;53.972;12.286;2022-11-14T01:19:04;101548.72;;;7.08;100.00
64827;BME280;51265;53.972;12.286;2022-11-14T01:21:49;101539.84;;;7.01;100.00
64827;BME280;51265;53.972;12.286;2022-11-14T01:24:47;101537.63;;;6.97;100.00
64827;BME280;51265;53.972;12.286;2022-11-14T01:27:31;101541.44;;;6.96;100.00
64827;BME280;51265;53.972;12.286;2022-11-14T01:30:16;101534.31;;;6.95;100.00
64827;BME280;51265;53.972;12.286;2022-11-14T01:33:03;101532.41;;;6.96;100.00
64827;BME280;51265;53.972;12.286;2022-11-14T01:35:48;101537.63;;;6.97;100.00
64827;BME280;51265;53.972;12.286;2022-11-14T01:38:33;101532.06;;;6.92;100.00
64827;BME280;51265;53.972;12.286;2022-11-14T01:41:18;101521.06;;;6.87;100.00
64827;BME280;51265;53.972;12.286;2022-11-14T01:44:14;101521.38;;;6.91;100.00
64827;BME280;51265;53.972;12.286;2022-11-14T01:46:59;101525.50;;;6.93;100.00
64827;BME280;51265;53.972;12.286;2022-11-14T01:49:46;101518.03;;;6.89;100.00
64827;BME280;51265;53.972;12.286;2022-11-14T01:52:35;101507.84;;;6.84;100.00
64827;BME280;51265;53.972;12.286;2022-11-14T01:55:21;101505.38;;;6.83;100.00
64827;BME280;51265;53.972;12.286;2022-11-14T01:58:06;101510.09;;;6.87;100.00
64827;BME280;51265;53.972;12.286;2022-11-14T02:00:51;101507.41;;;6.92;100.00
64827;BME280;51265;53.972;12.286;2022-11-14T02:03:38;101505.19;;;6.89;100.00
64827;BME280;51265;53.972;12.286;2022-11-14T02:06:27;101493.84;;;6.81;100.00
64827;BME280;51265;53.972;12.286;2022-11-14T02:09:13;101493.50;;;6.77;100.00
64827;BME280;51265;53.972;12.286;2022-11-14T02:12:00;101488.56;;;6.74;100.00
64827;BME280;51265;53.972;12.286;2022-11-14T02:14:48;101494.03;;;6.74;100.00
64827;BME280;51265;53.972;12.286;2022-11-14T02:17:33;101480.91;;;6.76;100.00
64827;BME280;51265;53.972;12.286;2022-11-14T02:20:24;101477.59;;;6.74;100.00
64827;BME280;51265;53.972;12.286;2022-11-14T02:23:12;101477.06;;;6.77;100.00
64827;BME280;51265;53.972;12.286;2022-11-14T02:25:58;101478.09;;;6.71;100.00
64827;BME280;51265;53.972;12.286;2022-11-14T02:28:42;101457.22;;;6.65;100.00
64827;BME280;51265;53.972;12.286;2022-11-14T02:31:27;101448.75;;;6.66;100.00
64827;BME280;51265;53.972;12.286;2022-11-14T02:34:12;101432.81;;;6.63;100.00
64827;BME280;51265;53.972;12.286;2022-11-14T02:37:00;101444.03;;;6.62;100.00
64827;BME280;51265;53.972;12.286;2022-11-14T02:39:44;101428.94;;;6.59;100.00
64827;BME280;51265;53.972;12.286;2022-11-14T02:42:29;101430.78;;;6.54;100.00
64827;BME280;51265;53.972;12.286;2022-11-14T02:45:14;101425.75;;;6.45;100.00
64827;BME280;51265;53.972;12.286;2022-11-14T02:47:59;101429.56;;;6.44;100.00
64827;BME280;51265;53.972;12.286;2022-11-14T02:50:47;101419.13;;;6.41;100.00
64827;BME280;51265;53.972;12.286;2022-11-14T02:53:32;101414.47;;;6.42;100.00
64827;BME280;51265;53.972;12.286;2022-11-14T02:56:16;101411.41;;;6.38;100.00
64827;BME280;51265;53.972;12.286;2022-11-14T02:59:01;101410.97;;;6.46;100.00
64827;BME280;51265;53.972;12.286;2022-11-14T03:01:45;101413.47;;;6.48;100.00
64827;BME280;51265;53.972;12.286;2022-11-14T03:04:30;101409.31;;;6.45;100.00
64827;BME280;51265;53.972;12.286;2022-11-14T03:07:15;101417.59;;;6.51;100.00
64827;BME280;51265;53.972;12.286;2022-11-14T03:10:14;101416.34;;;6.58;100.00
64827;BME280;51265;53.972;12.286;2022-11-14T03:12:58;101417.44;;;6.57;100.00
64827;BME280;51265;53.972;12.286;2022-11-14T03:15:43;101406.00;;;6.43;100.00
64827;BME280;51265;53.972;12.286;2022-11-14T03:18:28;101406.53;;;6.40;100.00
64827;BME280;51265;53.972;12.286;2022-11-14T03:21:20;101409.16;;;6.35;100.00
64827;BME280;51265;53.972;12.286;2022-11-14T03:24:05;101408.09;;;6.36;100.00
64827;BME280;51265;53.972;12.286;2022-11-14T03:26:50;101410.19;;;6.29;100.00
64827;BME280;51265;53.972;12.286;2022-11-14T03:29:35;101405.13;;;6.21;100.00
64827;BME280;51265;53.972;12.286;2022-11-14T03:32:20;101406.22;;;6.20;100.00
64827;BME280;51265;53.972;12.286;2022-11-14T03:35:05;101398.16;;;6.13;100.00
64827;BME280;51265;53.972;12.286;2022-11-14T03:37:50;101396.25;;;6.14;100.00
64827;BME280;51265;53.972;12.286;2022-11-14T03:40:38;101397.53;;;6.06;100.00
64827;BME280;51265;53.972;12.286;2022-11-14T03:43:23;101397.75;;;6.05;100.00
64827;BME280;51265;53.972;12.286;2022-11-14T03:46:08;101388.66;;;5.99;100.00
64827;BME280;51265;53.972;12.286;2022-11-14T03:48:52;101404.25;;;5.98;100.00
64827;BME280;51265;53.972;12.286;2022-11-14T03:51:37;101397.44;;;6.01;100.00
64827;BME280;51265;53.972;12.286;2022-11-14T03:54:22;101390.81;;;5.97;100.00
64827;BME280;51265;53.972;12.286;2022-11-14T03:57:06;101389.97;;;5.96;100.00
64827;BME280;51265;53.972;12.286;2022-11-14T03:59:51;101402.25;;;5.94;100.00
64827;BME280;51265;53.972;12.286;2022-11-14T04:02:36;101387.13;;;5.91;100.00
64827;BME280;51265;53.972;12.286;2022-11-14T04:05:21;101388.22;;;5.90;100.00
64827;BME280;51265;53.972;12.286;2022-11-14T04:08:06;101385.97;;;5.87;100.00
64827;BME280;51265;53.972;12.286;2022-11-14T04:10:51;101373.63;;;5.85;100.00
64827;BME280;51265;53.972;12.286;2022-11-14T04:13:35;101373.06;;;5.83;100.00
64827;BME280;51265;53.972;12.286;2022-11-14T04:16:20;101369.09;;;5.73;100.00
64827;BME280;51265;53.972;12.286;2022-11-14T04:19:05;101366.09;;;5.75;100.00
64827;BME280;51265;53.972;12.286;2022-11-14T04:21:49;101368.75;;;5.70;100.00
64827;BME280;51265;53.972;12.286;2022-11-14T04:24:34;101360.78;;;5.68;100.00
64827;BME280;51265;53.972;12.286;2022-11-14T04:27:19;101367.94;;;5.69;100.00
64827;BME280;51265;53.972;12.286;2022-11-14T04:30:04;101367.59;;;5.66;100.00
64827;BME280;51265;53.972;12.286;2022-11-14T04:32:49;101353.94;;;5.66;100.00
64827;BME280;51265;53.972;12.286;2022-11-14T04:35:34;101353.34;;;5.64;100.00
64827;BME280;51265;53.972;12.286;2022-11-14T04:38:18;101345.06;;;5.59;100.00
64827;BME280;51265;53.972;12.286;2022-11-14T04:41:03;101340.09;;;5.56;100.00
64827;BME280;51265;53.972;12.286;2022-11-14T04:43:48;101339.78;;;5.52;100.00
64827;BME280;51265;53.972;12.286;2022-11-14T04:46:33;101341.75;;;5.57;100.00
64827;BME280;51265;53.972;12.286;2022-11-14T04:49:17;101346.06;;;5.53;100.00
64827;BME280;51265;53.972;12.286;2022-11-14T04:52:02;101343.81;;;5.49;100.00
64827;BME280;51265;53.972;12.286;2022-11-14T04:54:47;101335.88;;;5.48;100.00
64827;BME280;51265;53.972;12.286;2022-11-14T04:57:31;101329.34;;;5.49;100.00
64827;BME280;51265;53.972;12.286;2022-11-14T05:00:16;101355.16;;;5.58;100.00
64827;BME280;51265;53.972;12.286;2022-11-14T05:03:01;101340.75;;;5.63;100.00
64827;BME280;51265;53.972;12.286;2022-11-14T05:05:46;101345.72;;;5.66;100.00
64827;BME280;51265;53.972;12.286;2022-11-14T05:08:30;101348.19;;;5.67;100.00
64827;BME280;51265;53.972;12.286;2022-11-14T05:11:16;101345.72;;;5.66;100.00
64827;BME280;51265;53.972;12.286;2022-11-14T05:14:01;101346.22;;;5.63;100.00
64827;BME280;51265;53.972;12.286;2022-11-14T05:16:47;101351.53;;;5.69;100.00
64827;BME280;51265;53.972;12.286;2022-11-14T05:19:31;101343.06;;;5.71;100.00
64827;BME280;51265;53.972;12.286;2022-11-14T05:22:16;101347.22;;;5.73;100.00
64827;BME280;51265;53.972;12.286;2022-11-14T05:25:01;101341.56;;;5.80;100.00
64827;BME280;51265;53.972;12.286;2022-11-14T05:27:45;101330.56;;;5.75;100.00
64827;BME280;51265;53.972;12.286;2022-11-14T05:30:30;101332.41;;;5.69;100.00
64827;BME280;51265;53.972;12.286;2022-11-14T05:33:14;101327.16;;;5.68;100.00
64827;BME280;51265;53.972;12.286;2022-11-14T05:36:08;101321.69;;;5.68;100.00
64827;BME280;51265;53.972;12.286;2022-11-14T05:38:53;101322.78;;;5.67;100.00
64827;BME280;51265;53.972;12.286;2022-11-14T05:41:37;101326.34;;;5.67;100.00
64827;BME280;51265;53.972;12.286;2022-11-14T05:44:22;101317.31;;;5.67;100.00
64827;BME280;51265;53.972;12.286;2022-11-14T05:47:06;101312.34;;;5.64;100.00
64827;BME280;51265;53.972;12.286;2022-11-14T05:49:51;101317.25;;;5.62;100.00
64827;BME280;51265;53.972;12.286;2022-11-14T05:52:35;101311.78;;;5.62;100.00
64827;BME280;51265;53.972;12.286;2022-11-14T05:55:20;101315.59;;;5.61;100.00
64827;BME280;51265;53.972;12.286;2022-11-14T05:58:04;101313.91;;;5.60;100.00
64827;BME280;51265;53.972;12.286;2022-11-14T06:00:49;101309.03;;;5.62;100.00
64827;BME280;51265;53.972;12.286;2022-11-14T06:03:38;101305.97;;;5.58;100.00
64827;BME280;51265;53.972;12.286;2022-11-14T06:06:23;101301.53;;;5.52;100.00
64827;BME280;51265;53.972;12.286;2022-11-14T06:09:08;101306.72;;;5.54;100.00
64827;BME280;51265;53.972;12.286;2022-11-14T06:11:52;101310.13;;;5.44;100.00
64827;BME280;51265;53.972;12.286;2022-11-14T06:14:37;101312.94;;;5.49;100.00
64827;BME280;51265;53.972;12.286;2022-11-14T06:17:22;101321.38;;;5.47;100.00
64827;BME280;51265;53.972;12.286;2022-11-14T06:20:06;101320.31;;;5.48;100.00
64827;BME280;51265;53.972;12.286;2022-11-14T06:22:53;101324.69;;;5.49;100.00
64827;BME280;51265;53.972;12.286;2022-11-14T06:25:38;101327.34;;;5.44;100.00
64827;BME280;51265;53.972;12.286;2022-11-14T06:28:23;101323.94;;;5.37;100.00
64827;BME280;51265;53.972;12.286;2022-11-14T06:31:08;101325.59;;;5.38;100.00
64827;BME280;51265;53.972;12.286;2022-11-14T06:33:52;101316.34;;;5.39;100.00
64827;BME280;51265;53.972;12.286;2022-11-14T06:36:37;101327.00;;;5.41;100.00
64827;BME280;51265;53.972;12.286;2022-11-14T06:39:22;101322.38;;;5.41;100.00
64827;BME280;51265;53.972;12.286;2022-11-14T06:42:07;101330.16;;;5.49;100.00
64827;BME280;51265;53.972;12.286;2022-11-14T06:44:51;101337.59;;;5.54;100.00
64827;BME280;51265;53.972;12.286;2022-11-14T06:47:36;101327.00;;;5.58;100.00
64827;BME280;51265;53.972;12.286;2022-11-14T06:50:21;101332.13;;;5.54;100.00
64827;BME280;51265;53.972;12.286;2022-11-14T06:53:06;101341.84;;;5.62;100.00
64827;BME280;51265;53.972;12.286;2022-11-14T06:58:46;101337.13;;;5.74;100.00
64827;BME280;51265;53.972;12.286;2022-11-14T07:01:31;101338.28;;;5.78;100.00
64827;BME280;51265;53.972;12.286;2022-11-14T07:04:16;101332.81;;;5.78;100.00
64827;BME280;51265;53.972;12.286;2022-11-14T07:07:01;101333.78;;;5.72;100.00
64827;BME280;51265;53.972;12.286;2022-11-14T07:09:46;101322.84;;;5.72;100.00
64827;BME280;51265;53.972;12.286;2022-11-14T07:12:30;101332.72;;;5.73;100.00
64827;BME280;51265;53.972;12.286;2022-11-14T07:15:16;101335.47;;;5.73;100.00
64827;BME280;51265;53.972;12.286;2022-11-14T07:18:00;101331.16;;;5.77;100.00
64827;BME280;51265;53.972;12.286;2022-11-14T07:20:46;101330.16;;;5.83;100.00
64827;BME280;51265;53.972;12.286;2022-11-14T07:23:32;101328.50;;;5.82;100.00
64827;BME280;51265;53.972;12.286;2022-11-14T07:26:17;101320.53;;;5.81;100.00
64827;BME280;51265;53.972;12.286;2022-11-14T07:29:01;101315.31;;;5.79;100.00
64827;BME280;51265;53.972;12.286;2022-11-14T07:31:46;101320.22;;;5.77;100.00
64827;BME280;51265;53.972;12.286;2022-11-14T07:34:30;101323.03;;;5.82;100.00
64827;BME280;51265;53.972;12.286;2022-11-14T07:37:15;101324.84;;;5.93;100.00
64827;BME280;51265;53.972;12.286;2022-11-14T07:40:00;101319.38;;;5.93;100.00
64827;BME280;51265;53.972;12.286;2022-11-14T07:42:45;101316.75;;;5.98;100.00
64827;BME280;51265;53.972;12.286;2022-11-14T07:45:30;101313.00;;;6.05;100.00
64827;BME280;51265;53.972;12.286;2022-11-14T07:48:15;101308.13;;;6.07;100.00
64827;BME280;51265;53.972;12.286;2022-11-14T07:51:05;101304.84;;;6.10;100.00
64827;BME280;51265;53.972;12.286;2022-11-14T07:53:51;101302.44;;;6.13;100.00
64827;BME280;51265;53.972;12.286;2022-11-14T07:56:36;101293.47;;;6.18;100.00
64827;BME280;51265;53.972;12.286;2022-11-14T07:59:21;101293.31;;;6.24;100.00
64827;BME280;51265;53.972;12.286;2022-11-14T08:02:10;101292.81;;;6.28;100.00
64827;BME280;51265;53.972;12.286;2022-11-14T08:04:55;101288.09;;;6.23;100.00
64827;BME280;51265;53.972;12.286;2022-11-14T08:07:40;101279.69;;;6.30;100.00
64827;BME280;51265;53.972;12.286;2022-11-14T08:10:24;101287.13;;;6.34;100.00
64827;BME280;51265;53.972;12.286;2022-11-14T08:13:09;101277.34;;;6.38;100.00
64827;BME280;51265;53.972;12.286;2022-11-14T08:15:54;101270.75;;;6.39;100.00
64827;BME280;51265;53.972;12.286;2022-11-14T08:18:39;101261.72;;;6.39;100.00
64827;BME280;51265;53.972;12.286;2022-11-14T08:21:23;101269.38;;;6.37;100.00
64827;BME280;51265;53.972;12.286;2022-11-14T08:24:08;101270.22;;;6.37;100.00
64827;BME280;51265;53.972;12.286;2022-11-14T08:26:52;101281.84;;;6.49;100.00
64827;BME280;51265;53.972;12.286;2022-11-14T08:29:37;101278.22;;;6.66;100.00
64827;BME280;51265;53.972;12.286;2022-11-14T08:32:22;101272.84;;;6.76;100.00
64827;BME280;51265;53.972;12.286;2022-11-14T08:35:06;101269.75;;;6.94;100.00
64827;BME280;51265;53.972;12.286;2022-11-14T08:37:52;101267.25;;;6.93;100.00
64827;BME280;51265;53.972;12.286;2022-11-14T08:40:36;101253.72;;;6.81;100.00
64827;BME280;51265;53.972;12.286;2022-11-14T08:43:21;101256.63;;;6.96;100.00
64827;BME280;51265;53.972;12.286;2022-11-14T08:46:06;101246.44;;;6.92;100.00
64827;BME280;51265;53.972;12.286;2022-11-14T08:48:50;101246.00;;;7.05;100.00
64827;BME280;51265;53.972;12.286;2022-11-14T08:51:35;101250.78;;;7.15;100.00
64827;BME280;51265;53.972;12.286;2022-11-14T08:54:20;101239.53;;;7.16;100.00
64827;BME280;51265;53.972;12.286;2022-11-14T08:57:05;101243.75;;;7.29;100.00
64827;BME280;51265;53.972;12.286;2022-11-14T08:59:50;101244.31;;;7.31;100.00
64827;BME280;51265;53.972;12.286;2022-11-14T09:02:34;101239.97;;;7.35;100.00
64827;BME280;51265;53.972;12.286;2022-11-14T09:05:20;101231.66;;;7.25;100.00
64827;BME280;51265;53.972;12.286;2022-11-14T09:08:05;101235.66;;;7.44;100.00
64827;BME280;51265;53.972;12.286;2022-11-14T09:10:51;101231.03;;;7.50;100.00
64827;BME280;51265;53.972;12.286;2022-11-14T09:13:36;101224.22;;;7.53;100.00
64827;BME280;51265;53.972;12.286;2022-11-14T09:16:20;101216.81;;;7.53;100.00
64827;BME280;51265;53.972;12.286;2022-11-14T09:19:05;101208.63;;;7.58;100.00
64827;BME280;51265;53.972;12.286;2022-11-14T09:21:50;101213.66;;;7.77;100.00
64827;BME280;51265;53.972;12.286;2022-11-14T09:24:34;101211.53;;;7.89;100.00
64827;BME280;51265;53.972;12.286;2022-11-14T09:27:19;101189.75;;;7.67;100.00
64827;BME280;51265;53.972;12.286;2022-11-14T09:30:04;101182.03;;;7.59;100.00
64827;BME280;51265;53.972;12.286;2022-11-14T09:32:49;101178.75;;;7.57;100.00
64827;BME280;51265;53.972;12.286;2022-11-14T09:35:34;101170.94;;;7.38;100.00
64827;BME280;51265;53.972;12.286;2022-11-14T09:38:20;101185.72;;;7.37;100.00
64827;BME280;51265;53.972;12.286;2022-11-14T09:47:32;101167.81;;;7.67;100.00
64827;BME280;51265;53.972;12.286;2022-11-14T09:50:25;101190.72;;;7.98;100.00
64827;BME280;51265;53.972;12.286;2022-11-14T09:53:22;101184.50;;;8.23;100.00
64827;BME280;51265;53.972;12.286;2022-11-14T09:56:12;101164.22;;;8.29;100.00
64827;BME280;51265;53.972;12.286;2022-11-14T09:58:58;101146.59;;;8.05;100.00
64827;BME280;51265;53.972;12.286;2022-11-14T10:05:03;101146.56;;;7.94;100.00
64827;BME280;51265;53.972;12.286;2022-11-14T10:07:55;101137.97;;;7.81;100.00
64827;BME280;51265;53.972;12.286;2022-11-14T10:16:44;101139.47;;;8.19;100.00
64827;BME280;51265;53.972;12.286;2022-11-14T10:19:49;101140.66;;;8.38;100.00
64827;BME280;51265;53.972;12.286;2022-11-14T10:23:04;101126.41;;;8.52;100.00
64827;BME280;51265;53.972;12.286;2022-11-14T10:32:19;101079.09;;;7.98;100.00
64827;BME280;51265;53.972;12.286;2022-11-14T10:35:35;101086.19;;;7.89;100.00
64827;BME280;51265;53.972;12.286;2022-11-14T10:38:28;101095.56;;;8.04;100.00
64827;BME280;51265;53.972;12.286;2022-11-14T10:41:16;101108.31;;;8.45;100.00
64827;BME280;51265;53.972;12.286;2022-11-14T10:44:01;101112.16;;;8.85;100.00
64827;BME280;51265;53.972;12.286;2022-11-14T10:46:49;101108.00;;;9.18;100.00
64827;BME280;51265;53.972;12.286;2022-11-14T10:49:35;101061.00;;;9.20;100.00
64827;BME280;51265;53.972;12.286;2022-11-14T10:52:29;101046.16;;;9.11;100.00
64827;BME280;51265;53.972;12.286;2022-11-14T10:55:18;101043.38;;;9.26;100.00
64827;BME280;51265;53.972;12.286;2022-11-14T10:58:08;101035.00;;;9.62;100.00
64827;BME280;51265;53.972;12.286;2022-11-14T11:00:54;101021.13;;;9.82;100.00
64827;BME280;51265;53.972;12.286;2022-11-14T11:03:40;100996.31;;;9.92;100.00
64827;BME280;51265;53.972;12.286;2022-11-14T11:06:27;100997.28;;;10.12;100.00
64827;BME280;51265;53.972;12.286;2022-11-14T11:09:16;100972.47;;;10.17;100.00
64827;BME280;51265;53.972;12.286;2022-11-14T11:12:45;100956.16;;;9.91;100.00
64827;BME280;51265;53.972;12.286;2022-11-14T11:15:30;100949.13;;;9.75;100.00
64827;BME280;51265;53.972;12.286;2022-11-14T11:18:30;100944.63;;;9.45;100.00
64827;BME280;51265;53.972;12.286;2022-11-14T11:21:21;100963.59;;;9.46;100.00
64827;BME280;51265;53.972;12.286;2022-11-14T11:24:07;100936.25;;;9.16;100.00
64827;BME280;51265;53.972;12.286;2022-11-14T11:27:12;100941.03;;;8.85;100.00
64827;BME280;51265;53.972;12.286;2022-11-14T11:30:03;100954.81;;;8.64;100.00
64827;BME280;51265;53.972;12.286;2022-11-14T11:32:48;100968.56;;;8.54;100.00
64827;BME280;51265;53.972;12.286;2022-11-14T11:35:33;100958.41;;;8.34;100.00
64827;BME280;51265;53.972;12.286;2022-11-14T11:38:18;100961.16;;;8.24;100.00
64827;BME280;51265;53.972;12.286;2022-11-14T11:44:02;100976.81;;;8.39;100.00
64827;BME280;51265;53.972;12.286;2022-11-14T11:52:36;100952.66;;;7.95;100.00
64827;BME280;51265;53.972;12.286;2022-11-14T11:55:31;100954.25;;;7.81;100.00
64827;BME280;51265;53.972;12.286;2022-11-14T11:58:21;100960.03;;;7.74;100.00
64827;BME280;51265;53.972;12.286;2022-11-14T12:01:11;100970.19;;;7.79;100.00
64827;BME280;51265;53.972;12.286;2022-11-14T12:03:56;100997.63;;;8.04;100.00
64827;BME280;51265;53.972;12.286;2022-11-14T12:06:45;100990.78;;;8.12;100.00
64827;BME280;51265;53.972;12.286;2022-11-14T12:09:37;100994.09;;;8.24;100.00
64827;BME280;51265;53.972;12.286;2022-11-14T12:15:31;100987.22;;;8.52;100.00
64827;BME280;51265;53.972;12.286;2022-11-14T12:24:24;100976.00;;;8.38;100.00
64827;BME280;51265;53.972;12.286;2022-11-14T12:30:22;100966.09;;;8.58;100.00
64827;BME280;51265;53.972;12.286;2022-11-14T12:33:29;100941.38;;;8.47;100.00
64827;BME280;51265;53.972;12.286;2022-11-14T12:36:15;100931.00;;;8.44;100.00
64827;BME280;51265;53.972;12.286;2022-11-14T12:39:00;100932.34;;;8.42;100.00
64827;BME280;51265;53.972;12.286;2022-11-14T12:41:46;100932.06;;;8.38;100.00
64827;BME280;51265;53.972;12.286;2022-11-14T12:44:45;100930.97;;;8.39;100.00
64827;BME280;51265;53.972;12.286;2022-11-14T12:47:30;100920.25;;;8.33;100.00
64827;BME280;51265;53.972;12.286;2022-11-14T12:50:30;100937.25;;;8.35;100.00
64827;BME280;51265;53.972;12.286;2022-11-14T12:59:44;100923.84;;;8.13;100.00
64827;BME280;51265;53.972;12.286;2022-11-14T13:05:56;100898.03;;;8.14;100.00
64827;BME280;51265;53.972;12.286;2022-11-14T13:11:40;100892.00;;;8.17;100.00
64827;BME280;51265;53.972;12.286;2022-11-14T13:18:02;100892.56;;;8.14;100.00
64827;BME280;51265;53.972;12.286;2022-11-14T13:21:26;100889.28;;;8.02;100.00
64827;BME280;51265;53.972;12.286;2022-11-14T13:27:41;100890.09;;;7.92;100.00
64827;BME280;51265;53.972;12.286;2022-11-14T13:33:51;100879.69;;;7.79;100.00
64827;BME280;51265;53.972;12.286;2022-11-14T13:39:43;100880.22;;;7.81;100.00
64827;BME280;51265;53.972;12.286;2022-11-14T13:46:12;100895.31;;;7.88;100.00
64827;BME280;51265;53.972;12.286;2022-11-14T13:52:12;100876.66;;;7.65;100.00
64827;BME280;51265;53.972;12.286;2022-11-14T13:54:59;100874.19;;;7.58;100.00
64827;BME280;51265;53.972;12.286;2022-11-14T13:58:05;100866.78;;;7.54;100.00
64827;BME280;51265;53.972;12.286;2022-11-14T14:07:49;100872.78;;;7.30;100.00
64827;BME280;51265;53.972;12.286;2022-11-14T14:10:45;100882.63;;;7.26;100.00
64827;BME280;51265;53.972;12.286;2022-11-14T14:13:45;100884.81;;;7.24;100.00
64827;BME280;51265;53.972;12.286;2022-11-14T14:16:54;100890.28;;;7.19;100.00
64827;BME280;51265;53.972;12.286;2022-11-14T14:20:16;100896.31;;;7.16;100.00
64827;BME280;51265;53.972;12.286;2022-11-14T14:35:52;100892.91;;;6.88;100.00
64827;BME280;51265;53.972;12.286;2022-11-14T14:38:37;100887.69;;;6.82;100.00
64827;BME280;51265;53.972;12.286;2022-11-14T14:41:22;100886.81;;;6.71;100.00
64827;BME280;51265;53.972;12.286;2022-11-14T14:44:26;100886.78;;;6.61;100.00
64827;BME280;51265;53.972;12.286;2022-11-14T14:47:31;100879.06;;;6.53;100.00
64827;BME280;51265;53.972;12.286;2022-11-14T14:50:22;100892.44;;;6.44;100.00
64827;BME280;51265;53.972;12.286;2022-11-14T14:53:21;100884.72;;;6.36;100.00
64827;BME280;51265;53.972;12.286;2022-11-14T14:56:18;100885.47;;;6.26;100.00
64827;BME280;51265;53.972;12.286;2022-11-14T14:59:17;100887.88;;;6.17;100.00
64827;BME280;51265;53.972;12.286;2022-11-14T15:02:14;100886.44;;;6.10;100.00
64827;BME280;51265;53.972;12.286;2022-11-14T15:05:01;100888.84;;;6.01;100.00
64827;BME280;51265;53.972;12.286;2022-11-14T15:07:47;100882.53;;;5.95;100.00
64827;BME280;51265;53.972;12.286;2022-11-14T15:10:33;100883.78;;;5.88;100.00
64827;BME280;51265;53.972;12.286;2022-11-14T15:13:18;100900.44;;;5.81;100.00
64827;BME280;51265;53.972;12.286;2022-11-14T15:16:04;100888.88;;;5.74;100.00
64827;BME280;51265;53.972;12.286;2022-11-14T15:18:51;100888.78;;;5.64;100.00
64827;BME280;51265;53.972;12.286;2022-11-14T15:21:37;100896.94;;;5.59;100.00
64827;BME280;51265;53.972;12.286;2022-11-14T15:24:22;100894.44;;;5.52;100.00
64827;BME280;51265;53.972;12.286;2022-11-14T15:27:15;100894.13;;;5.48;100.00
64827;BME280;51265;53.972;12.286;2022-11-14T15:30:04;100905.00;;;5.43;100.00
64827;BME280;51265;53.972;12.286;2022-11-14T15:32:52;100910.97;;;5.40;100.00
64827;BME280;51265;53.972;12.286;2022-11-14T15:35:38;100919.63;;;5.32;100.00
64827;BME280;51265;53.972;12.286;2022-11-14T15:38:23;100911.38;;;5.27;100.00
64827;BME280;51265;53.972;12.286;2022-11-14T15:41:23;100916.25;;;5.25;100.00
64827;BME280;51265;53.972;12.286;2022-11-14T15:44:27;100914.56;;;5.19;100.00
64827;BME280;51265;53.972;12.286;2022-11-14T15:47:19;100913.16;;;5.16;100.00
64827;BME280;51265;53.972;12.286;2022-11-14T15:50:22;100910.94;;;5.13;100.00
64827;BME280;51265;53.972;12.286;2022-11-14T15:53:20;100910.06;;;5.08;100.00
64827;BME280;51265;53.972;12.286;2022-11-14T15:56:10;100905.03;;;4.99;100.00
64827;BME280;51265;53.972;12.286;2022-11-14T15:58:55;100909.88;;;4.92;100.00
64827;BME280;51265;53.972;12.286;2022-11-14T16:01:40;100913.69;;;4.91;100.00
64827;BME280;51265;53.972;12.286;2022-11-14T16:04:32;100910.41;;;4.89;100.00